Mayfield, Oklahoma
Current Conditions -  °F | °C
As of 10:55 AM on Thursday 30 Oct 2014 (Local Time) from KELK Reporting Station
Clear Clear  
Wind Chill: 64°   Ceiling: Unl
Heat Index: 64°   Visibility: 10mi
Dew Point: 48°   Wind: 12mph
Humidity: 56%   Direction: 340°NNW
Pressure: 30.22"   Gusts: NA
Location:  35.34°N, 99.88°W
Report Text: KELK 301555Z AUTO 34010KT 10SM CLR 18/09 A3022 RMK AO2
Loading
Personal Weather Stations






























Interactive Weather Map
Tropical Storm Tracking
New forecast layout! Learn more

10-Day Weather Forecast

Advertisements
Track Severe Weather on mobile